sensor_id;sensor_type;location;lat;lon;timestamp;pressure;altitude;pressure_sealevel;temperature;humidity
24486;BME280;13449;49.374;8.584;2023-11-18T00:02:02;101510.41;;;5.50;100.00
24486;BME280;13449;49.374;8.584;2023-11-18T00:04:31;101514.00;;;5.47;100.00
24486;BME280;13449;49.374;8.584;2023-11-18T00:06:57;101508.00;;;5.45;100.00
24486;BME280;13449;49.374;8.584;2023-11-18T00:09:25;101521.84;;;5.47;100.00
24486;BME280;13449;49.374;8.584;2023-11-18T00:11:52;101514.06;;;5.46;100.00
24486;BME280;13449;49.374;8.584;2023-11-18T00:14:18;101509.69;;;5.46;100.00
24486;BME280;13449;49.374;8.584;2023-11-18T00:16:49;101514.78;;;5.49;100.00
24486;BME280;13449;49.374;8.584;2023-11-18T00:19:16;101515.66;;;5.50;100.00
24486;BME280;13449;49.374;8.584;2023-11-18T00:21:43;101526.03;;;5.51;100.00
24486;BME280;13449;49.374;8.584;2023-11-18T00:24:10;101517.25;;;5.54;100.00
24486;BME280;13449;49.374;8.584;2023-11-18T00:26:36;101524.28;;;5.52;100.00
24486;BME280;13449;49.374;8.584;2023-11-18T00:29:03;101522.28;;;5.58;100.00
24486;BME280;13449;49.374;8.584;2023-11-18T00:31:32;101521.88;;;5.69;100.00
24486;BME280;13449;49.374;8.584;2023-11-18T00:33:59;101522.94;;;5.63;100.00
24486;BME280;13449;49.374;8.584;2023-11-18T00:36:25;101527.34;;;5.63;100.00
24486;BME280;13449;49.374;8.584;2023-11-18T00:38:52;101517.00;;;5.60;100.00
24486;BME280;13449;49.374;8.584;2023-11-18T00:41:19;101511.78;;;5.60;100.00
24486;BME280;13449;49.374;8.584;2023-11-18T00:43:46;101516.28;;;5.56;100.00
24486;BME280;13449;49.374;8.584;2023-11-18T00:46:12;101520.72;;;5.54;100.00
24486;BME280;13449;49.374;8.584;2023-11-18T00:48:39;101514.66;;;5.52;100.00
24486;BME280;13449;49.374;8.584;2023-11-18T00:51:06;101519.09;;;5.50;100.00
24486;BME280;13449;49.374;8.584;2023-11-18T00:53:34;101510.41;;;5.50;100.00
24486;BME280;13449;49.374;8.584;2023-11-18T00:56:01;101513.81;;;5.52;100.00
24486;BME280;13449;49.374;8.584;2023-11-18T00:58:28;101511.41;;;5.47;100.00
24486;BME280;13449;49.374;8.584;2023-11-18T01:00:57;101519.34;;;5.44;100.00
24486;BME280;13449;49.374;8.584;2023-11-18T01:03:26;101519.47;;;5.41;100.00
24486;BME280;13449;49.374;8.584;2023-11-18T01:05:54;101520.53;;;5.37;100.00
24486;BME280;13449;49.374;8.584;2023-11-18T01:08:20;101520.72;;;5.31;100.00
24486;BME280;13449;49.374;8.584;2023-11-18T01:10:49;101521.75;;;5.27;100.00
24486;BME280;13449;49.374;8.584;2023-11-18T01:13:15;101534.94;;;5.24;100.00
24486;BME280;13449;49.374;8.584;2023-11-18T01:15:42;101536.84;;;5.19;100.00
24486;BME280;13449;49.374;8.584;2023-11-18T01:18:08;101538.91;;;5.10;100.00
24486;BME280;13449;49.374;8.584;2023-11-18T01:20:35;101537.34;;;5.06;100.00
24486;BME280;13449;49.374;8.584;2023-11-18T01:23:01;101532.31;;;5.00;100.00
24486;BME280;13449;49.374;8.584;2023-11-18T01:25:28;101534.13;;;4.98;100.00
24486;BME280;13449;49.374;8.584;2023-11-18T01:27:55;101536.91;;;4.94;100.00
24486;BME280;13449;49.374;8.584;2023-11-18T01:30:24;101534.47;;;4.89;100.00
24486;BME280;13449;49.374;8.584;2023-11-18T01:32:53;101526.84;;;4.83;100.00
24486;BME280;13449;49.374;8.584;2023-11-18T01:35:19;101522.66;;;4.79;100.00
24486;BME280;13449;49.374;8.584;2023-11-18T01:37:46;101528.00;;;4.76;100.00
24486;BME280;13449;49.374;8.584;2023-11-18T01:40:14;101521.16;;;4.72;100.00
24486;BME280;13449;49.374;8.584;2023-11-18T01:42:43;101527.28;;;4.71;100.00
24486;BME280;13449;49.374;8.584;2023-11-18T01:45:12;101528.72;;;4.79;100.00
24486;BME280;13449;49.374;8.584;2023-11-18T01:47:41;101525.63;;;4.93;100.00
24486;BME280;13449;49.374;8.584;2023-11-18T01:50:12;101520.53;;;4.90;100.00
24486;BME280;13449;49.374;8.584;2023-11-18T01:52:39;101531.81;;;4.91;100.00
24486;BME280;13449;49.374;8.584;2023-11-18T01:55:10;101527.44;;;4.91;100.00
24486;BME280;13449;49.374;8.584;2023-11-18T01:57:36;101530.84;;;4.93;100.00
24486;BME280;13449;49.374;8.584;2023-11-18T02:00:03;101530.84;;;4.93;100.00
24486;BME280;13449;49.374;8.584;2023-11-18T02:02:32;101532.66;;;4.91;100.00
24486;BME280;13449;49.374;8.584;2023-11-18T02:04:59;101530.97;;;4.90;100.00
24486;BME280;13449;49.374;8.584;2023-11-18T02:07:28;101535.09;;;4.96;100.00
24486;BME280;13449;49.374;8.584;2023-11-18T02:09:55;101534.06;;;5.00;100.00
24486;BME280;13449;49.374;8.584;2023-11-18T02:12:52;101529.88;;;4.96;100.00
24486;BME280;13449;49.374;8.584;2023-11-18T02:15:22;101529.03;;;4.95;100.00
24486;BME280;13449;49.374;8.584;2023-11-18T02:17:52;101529.16;;;4.92;100.00
24486;BME280;13449;49.374;8.584;2023-11-18T02:20:22;101529.16;;;4.92;100.00
24486;BME280;13449;49.374;8.584;2023-11-18T02:22:50;101522.47;;;4.84;100.00
24486;BME280;13449;49.374;8.584;2023-11-18T02:25:23;101531.59;;;4.72;100.00
24486;BME280;13449;49.374;8.584;2023-11-18T02:27:52;101531.03;;;4.64;100.00
24486;BME280;13449;49.374;8.584;2023-11-18T02:30:20;101532.13;;;4.57;100.00
24486;BME280;13449;49.374;8.584;2023-11-18T02:33:09;101553.13;;;4.54;100.00
24486;BME280;13449;49.374;8.584;2023-11-18T02:35:51;101544.81;;;4.42;100.00
24486;BME280;13449;49.374;8.584;2023-11-18T02:38:23;101543.91;;;4.43;100.00
24486;BME280;13449;49.374;8.584;2023-11-18T02:40:55;101536.38;;;4.34;100.00
24486;BME280;13449;49.374;8.584;2023-11-18T02:43:24;101535.59;;;4.32;100.00
24486;BME280;13449;49.374;8.584;2023-11-18T02:45:56;101541.81;;;4.28;100.00
24486;BME280;13449;49.374;8.584;2023-11-18T02:48:26;101538.59;;;4.20;100.00
24486;BME280;13449;49.374;8.584;2023-11-18T02:50:54;101537.00;;;4.16;100.00
24486;BME280;13449;49.374;8.584;2023-11-18T02:53:23;101527.59;;;4.12;100.00
24486;BME280;13449;49.374;8.584;2023-11-18T02:55:51;101517.28;;;4.07;100.00
24486;BME280;13449;49.374;8.584;2023-11-18T02:58:20;101520.94;;;4.02;100.00
24486;BME280;13449;49.374;8.584;2023-11-18T03:00:47;101525.38;;;4.00;100.00
24486;BME280;13449;49.374;8.584;2023-11-18T03:03:14;101522.06;;;3.95;100.00
24486;BME280;13449;49.374;8.584;2023-11-18T03:05:41;101520.44;;;3.90;100.00
24486;BME280;13449;49.374;8.584;2023-11-18T03:08:10;101514.28;;;3.93;100.00
24486;BME280;13449;49.374;8.584;2023-11-18T03:10:40;101520.44;;;3.90;100.00
24486;BME280;13449;49.374;8.584;2023-11-18T03:13:10;101515.34;;;3.87;100.00
24486;BME280;13449;49.374;8.584;2023-11-18T03:15:40;101504.22;;;3.82;100.00
24486;BME280;13449;49.374;8.584;2023-11-18T03:18:07;101507.84;;;3.77;100.00
24486;BME280;13449;49.374;8.584;2023-11-18T03:20:35;101503.59;;;3.74;100.00
24486;BME280;13449;49.374;8.584;2023-11-18T03:23:02;101512.41;;;3.70;100.00
24486;BME280;13449;49.374;8.584;2023-11-18T03:25:31;101507.31;;;3.67;100.00
24486;BME280;13449;49.374;8.584;2023-11-18T03:27:57;101512.63;;;3.64;100.00
24486;BME280;13449;49.374;8.584;2023-11-18T03:30:24;101512.63;;;3.64;100.00
24486;BME280;13449;49.374;8.584;2023-11-18T03:32:55;101505.59;;;3.66;100.00
24486;BME280;13449;49.374;8.584;2023-11-18T03:35:21;101512.63;;;3.64;100.00
24486;BME280;13449;49.374;8.584;2023-11-18T03:37:50;101509.09;;;3.65;100.00
24486;BME280;13449;49.374;8.584;2023-11-18T03:40:18;101501.88;;;3.73;100.00
24486;BME280;13449;49.374;8.584;2023-11-18T03:42:44;101505.66;;;3.91;100.00
24486;BME280;13449;49.374;8.584;2023-11-18T03:45:16;101510.97;;;3.88;100.00
24486;BME280;13449;49.374;8.584;2023-11-18T03:47:44;101508.22;;;3.92;100.00
24486;BME280;13449;49.374;8.584;2023-11-18T03:50:11;101513.13;;;4.02;100.00
24486;BME280;13449;49.374;8.584;2023-11-18T03:52:39;101512.13;;;4.06;100.00
24486;BME280;13449;49.374;8.584;2023-11-18T03:55:07;101511.03;;;4.13;100.00
24486;BME280;13449;49.374;8.584;2023-11-18T03:57:34;101519.16;;;4.30;100.00
24486;BME280;13449;49.374;8.584;2023-11-18T04:00:00;101519.72;;;4.38;100.00
24486;BME280;13449;49.374;8.584;2023-11-18T04:02:27;101522.44;;;4.35;100.00
24486;BME280;13449;49.374;8.584;2023-11-18T04:04:55;101526.81;;;4.35;100.00
24486;BME280;13449;49.374;8.584;2023-11-18T04:07:22;101529.34;;;4.36;100.00
24486;BME280;13449;49.374;8.584;2023-11-18T04:09:50;101527.59;;;4.37;100.00
24486;BME280;13449;49.374;8.584;2023-11-18T04:12:20;101518.13;;;4.34;100.00
24486;BME280;13449;49.374;8.584;2023-11-18T04:14:46;101514.56;;;4.37;100.00
24486;BME280;13449;49.374;8.584;2023-11-18T04:17:13;101524.19;;;4.35;100.00
24486;BME280;13449;49.374;8.584;2023-11-18T04:19:42;101521.66;;;4.33;100.00
24486;BME280;13449;49.374;8.584;2023-11-18T04:22:11;101522.66;;;4.29;100.00
24486;BME280;13449;49.374;8.584;2023-11-18T04:24:40;101508.91;;;4.24;100.00
24486;BME280;13449;49.374;8.584;2023-11-18T04:27:11;101497.72;;;4.20;100.00
24486;BME280;13449;49.374;8.584;2023-11-18T04:29:37;101497.84;;;4.17;100.00
24486;BME280;13449;49.374;8.584;2023-11-18T04:32:04;101488.38;;;4.15;100.00
24486;BME280;13449;49.374;8.584;2023-11-18T04:34:35;101496.25;;;4.13;100.00
24486;BME280;13449;49.374;8.584;2023-11-18T04:37:05;101494.63;;;4.09;100.00
24486;BME280;13449;49.374;8.584;2023-11-18T04:39:32;101492.06;;;4.08;100.00
24486;BME280;13449;49.374;8.584;2023-11-18T04:41:59;101498.06;;;4.10;100.00
24486;BME280;13449;49.374;8.584;2023-11-18T04:44:27;101505.75;;;4.14;100.00
24486;BME280;13449;49.374;8.584;2023-11-18T04:46:53;101504.91;;;4.14;100.00
24486;BME280;13449;49.374;8.584;2023-11-18T04:49:20;101506.34;;;4.22;100.00
24486;BME280;13449;49.374;8.584;2023-11-18T04:51:47;101497.31;;;4.33;100.00
24486;BME280;13449;49.374;8.584;2023-11-18T04:54:18;101505.72;;;4.41;100.00
24486;BME280;13449;49.374;8.584;2023-11-18T04:56:45;101497.75;;;4.45;100.00
24486;BME280;13449;49.374;8.584;2023-11-18T04:59:12;101499.03;;;4.59;100.00
24486;BME280;13449;49.374;8.584;2023-11-18T05:01:43;101499.72;;;4.64;100.00
24486;BME280;13449;49.374;8.584;2023-11-18T05:04:15;101503.78;;;4.71;100.00
24486;BME280;13449;49.374;8.584;2023-11-18T05:06:42;101507.19;;;4.73;100.00
24486;BME280;13449;49.374;8.584;2023-11-18T05:09:08;101501.88;;;4.76;100.00
24486;BME280;13449;49.374;8.584;2023-11-18T05:11:37;101505.22;;;4.79;100.00
24486;BME280;13449;49.374;8.584;2023-11-18T05:14:07;101504.00;;;4.90;100.00
24486;BME280;13449;49.374;8.584;2023-11-18T05:16:37;101502.06;;;4.95;100.00
24486;BME280;13449;49.374;8.584;2023-11-18T05:19:05;101498.44;;;4.99;100.00
24486;BME280;13449;49.374;8.584;2023-11-18T05:21:33;101494.69;;;5.06;100.00
24486;BME280;13449;49.374;8.584;2023-11-18T05:24:00;101504.19;;;5.08;100.00
24486;BME280;13449;49.374;8.584;2023-11-18T05:26:27;101510.97;;;5.13;100.00
24486;BME280;13449;49.374;8.584;2023-11-18T05:28:53;101505.63;;;5.16;100.00
24486;BME280;13449;49.374;8.584;2023-11-18T05:31:25;101504.72;;;5.17;100.00
24486;BME280;13449;49.374;8.584;2023-11-18T05:33:54;101506.38;;;5.19;100.00
24486;BME280;13449;49.374;8.584;2023-11-18T05:36:24;101512.44;;;5.20;100.00
24486;BME280;13449;49.374;8.584;2023-11-18T05:39:03;101514.16;;;5.21;100.00
24486;BME280;13449;49.374;8.584;2023-11-18T05:41:31;101507.13;;;5.23;100.00
24486;BME280;13449;49.374;8.584;2023-11-18T05:43:58;101503.59;;;5.24;100.00
24486;BME280;13449;49.374;8.584;2023-11-18T05:46:25;101487.81;;;5.27;100.00
24486;BME280;13449;49.374;8.584;2023-11-18T05:48:52;101493.03;;;5.27;100.00
24486;BME280;13449;49.374;8.584;2023-11-18T05:51:26;101484.28;;;5.28;100.00
24486;BME280;13449;49.374;8.584;2023-11-18T05:53:53;101472.00;;;5.30;100.00
24486;BME280;13449;49.374;8.584;2023-11-18T05:56:20;101469.41;;;5.30;100.00
24486;BME280;13449;49.374;8.584;2023-11-18T05:58:54;101478.94;;;5.31;100.00
24486;BME280;13449;49.374;8.584;2023-11-18T06:01:21;101478.09;;;5.30;100.00
24486;BME280;13449;49.374;8.584;2023-11-18T06:03:51;101477.09;;;5.33;100.00
24486;BME280;13449;49.374;8.584;2023-11-18T06:06:17;101475.34;;;5.33;100.00
24486;BME280;13449;49.374;8.584;2023-11-18T06:08:52;101488.53;;;5.30;100.00
24486;BME280;13449;49.374;8.584;2023-11-18T06:11:20;101500.69;;;5.31;100.00
24486;BME280;13449;49.374;8.584;2023-11-18T06:13:49;101501.53;;;5.32;100.00
24486;BME280;13449;49.374;8.584;2023-11-18T06:16:23;101495.56;;;5.28;100.00
24486;BME280;13449;49.374;8.584;2023-11-18T06:18:52;101490.22;;;5.31;100.00
24486;BME280;13449;49.374;8.584;2023-11-18T06:21:21;101495.56;;;5.28;100.00
24486;BME280;13449;49.374;8.584;2023-11-18T06:23:53;101489.38;;;5.31;100.00
24486;BME280;13449;49.374;8.584;2023-11-18T06:26:25;101496.44;;;5.29;100.00
24486;BME280;13449;49.374;8.584;2023-11-18T06:28:55;101504.16;;;5.32;100.00
24486;BME280;13449;49.374;8.584;2023-11-18T06:31:23;101496.44;;;5.29;100.00
24486;BME280;13449;49.374;8.584;2023-11-18T06:33:50;101498.00;;;5.33;100.00
24486;BME280;13449;49.374;8.584;2023-11-18T06:36:18;101498.13;;;5.30;100.00
24486;BME280;13449;49.374;8.584;2023-11-18T06:38:45;101494.47;;;5.34;100.00
24486;BME280;13449;49.374;8.584;2023-11-18T06:41:15;101484.88;;;5.34;100.00
24486;BME280;13449;49.374;8.584;2023-11-18T06:43:44;101485.84;;;5.32;100.00
24486;BME280;13449;49.374;8.584;2023-11-18T06:46:21;101491.22;;;5.29;100.00
24486;BME280;13449;49.374;8.584;2023-11-18T06:48:52;101489.50;;;5.28;100.00
24486;BME280;13449;49.374;8.584;2023-11-18T06:51:21;101491.44;;;5.23;100.00
24486;BME280;13449;49.374;8.584;2023-11-18T06:53:51;101494.22;;;5.18;100.00
24486;BME280;13449;49.374;8.584;2023-11-18T06:56:20;101493.38;;;5.18;100.00
24486;BME280;13449;49.374;8.584;2023-11-18T06:58:49;101497.59;;;5.22;100.00
24486;BME280;13449;49.374;8.584;2023-11-18T07:01:16;101501.00;;;5.24;100.00
24486;BME280;13449;49.374;8.584;2023-11-18T07:03:47;101510.41;;;5.28;100.00
24486;BME280;13449;49.374;8.584;2023-11-18T07:06:20;101505.91;;;5.31;100.00
24486;BME280;13449;49.374;8.584;2023-11-18T07:08:49;101505.72;;;5.36;100.00
24486;BME280;13449;49.374;8.584;2023-11-18T07:11:16;101511.75;;;5.38;100.00
24486;BME280;13449;49.374;8.584;2023-11-18T07:13:46;101516.03;;;5.40;100.00
24486;BME280;13449;49.374;8.584;2023-11-18T07:16:17;101516.88;;;5.41;100.00
24486;BME280;13449;49.374;8.584;2023-11-18T07:18:45;101509.69;;;5.46;100.00
24486;BME280;13449;49.374;8.584;2023-11-18T07:21:12;101515.66;;;5.50;100.00
24486;BME280;13449;49.374;8.584;2023-11-18T07:23:40;101515.59;;;5.51;100.00
24486;BME280;13449;49.374;8.584;2023-11-18T07:26:08;101512.75;;;5.57;100.00
24486;BME280;13449;49.374;8.584;2023-11-18T07:28:36;101507.41;;;5.60;100.00
24486;BME280;13449;49.374;8.584;2023-11-18T07:31:03;101493.28;;;5.64;100.00
24486;BME280;13449;49.374;8.584;2023-11-18T07:33:31;101498.38;;;5.67;100.00
24486;BME280;13449;49.374;8.584;2023-11-18T07:35:58;101494.88;;;5.68;100.00
24486;BME280;13449;49.374;8.584;2023-11-18T07:38:25;101493.78;;;5.74;100.00
24486;BME280;13449;49.374;8.584;2023-11-18T07:40:53;101496.19;;;5.79;100.00
24486;BME280;13449;49.374;8.584;2023-11-18T07:43:23;101500.53;;;5.80;100.00
24486;BME280;13449;49.374;8.584;2023-11-18T07:45:49;101501.25;;;5.83;100.00
24486;BME280;13449;49.374;8.584;2023-11-18T07:48:19;101506.31;;;5.88;100.00
24486;BME280;13449;49.374;8.584;2023-11-18T07:50:47;101515.91;;;5.87;100.00
24486;BME280;13449;49.374;8.584;2023-11-18T07:53:13;101512.16;;;5.94;100.00
24486;BME280;13449;49.374;8.584;2023-11-18T07:55:43;101504.25;;;5.96;100.00
24486;BME280;13449;49.374;8.584;2023-11-18T07:58:13;101512.88;;;5.98;100.00
24486;BME280;13449;49.374;8.584;2023-11-18T08:00:41;101518.00;;;6.01;100.00
24486;BME280;13449;49.374;8.584;2023-11-18T08:03:14;101516.91;;;6.07;100.00
24486;BME280;13449;49.374;8.584;2023-11-18T08:05:43;101526.38;;;6.09;100.00
24486;BME280;13449;49.374;8.584;2023-11-18T08:08:13;101522.72;;;6.13;100.00
24486;BME280;13449;49.374;8.584;2023-11-18T08:10:43;101522.72;;;6.13;100.00
24486;BME280;13449;49.374;8.584;2023-11-18T08:13:15;101521.56;;;6.20;100.00
24486;BME280;13449;49.374;8.584;2023-11-18T08:15:45;101517.13;;;6.22;100.00
24486;BME280;13449;49.374;8.584;2023-11-18T08:18:12;101523.97;;;6.25;100.00
24486;BME280;13449;49.374;8.584;2023-11-18T08:20:39;101522.06;;;6.28;100.00
24486;BME280;13449;49.374;8.584;2023-11-18T08:23:12;101522.84;;;6.30;100.00
24486;BME280;13449;49.374;8.584;2023-11-18T08:25:38;101511.31;;;6.36;100.00
24486;BME280;13449;49.374;8.584;2023-11-18T08:28:07;101518.31;;;6.36;100.00
24486;BME280;13449;49.374;8.584;2023-11-18T08:30:36;101525.16;;;6.38;100.00
24486;BME280;13449;49.374;8.584;2023-11-18T08:33:05;101526.03;;;6.39;100.00
24486;BME280;13449;49.374;8.584;2023-11-18T08:35:36;101516.25;;;6.42;100.00
24486;BME280;13449;49.374;8.584;2023-11-18T08:38:02;101516.94;;;6.47;100.00
24486;BME280;13449;49.374;8.584;2023-11-18T08:40:30;101522.81;;;6.52;100.00
24486;BME280;13449;49.374;8.584;2023-11-18T08:43:00;101508.59;;;6.58;100.00
24486;BME280;13449;49.374;8.584;2023-11-18T08:45:36;101510.16;;;6.62;100.00
24486;BME280;13449;49.374;8.584;2023-11-18T08:48:04;101510.75;;;6.69;100.00
24486;BME280;13449;49.374;8.584;2023-11-18T08:50:36;101502.69;;;6.73;100.00
24486;BME280;13449;49.374;8.584;2023-11-18T08:53:03;101499.16;;;6.74;100.00
24486;BME280;13449;49.374;8.584;2023-11-18T08:55:36;101498.78;;;6.83;100.00
24486;BME280;13449;49.374;8.584;2023-11-18T08:58:09;101503.72;;;6.89;100.00
24486;BME280;13449;49.374;8.584;2023-11-18T09:00:46;101504.72;;;6.87;100.00
24486;BME280;13449;49.374;8.584;2023-11-18T09:03:25;101498.22;;;6.96;100.00
24486;BME280;13449;49.374;8.584;2023-11-18T09:08:50;101508.28;;;7.05;100.00
24486;BME280;13449;49.374;8.584;2023-11-18T09:11:23;101506.09;;;7.14;100.00
24486;BME280;13449;49.374;8.584;2023-11-18T09:13:55;101503.03;;;7.05;100.00
24486;BME280;13449;49.374;8.584;2023-11-18T09:16:27;101501.03;;;7.10;100.00
24486;BME280;13449;49.374;8.584;2023-11-18T09:18:57;101505.25;;;7.14;100.00
24486;BME280;13449;49.374;8.584;2023-11-18T09:21:29;101503.47;;;7.14;100.00
24486;BME280;13449;49.374;8.584;2023-11-18T09:23:56;101509.06;;;7.26;100.00
24486;BME280;13449;49.374;8.584;2023-11-18T09:26:25;101505.72;;;7.22;100.00
24486;BME280;13449;49.374;8.584;2023-11-18T09:28:57;101512.25;;;7.32;100.00
24486;BME280;13449;49.374;8.584;2023-11-18T09:31:24;101516.28;;;7.39;100.00
24486;BME280;13449;49.374;8.584;2023-11-18T09:33:51;101508.41;;;7.39;100.00
24486;BME280;13449;49.374;8.584;2023-11-18T09:36:20;101508.28;;;7.42;100.00
24486;BME280;13449;49.374;8.584;2023-11-18T09:38:51;101503.47;;;7.33;100.00
24486;BME280;13449;49.374;8.584;2023-11-18T09:41:19;101510.97;;;7.41;100.00
24486;BME280;13449;49.374;8.584;2023-11-18T09:43:50;101513.38;;;7.45;100.00
24486;BME280;13449;49.374;8.584;2023-11-18T09:46:25;101508.69;;;7.52;100.00
24486;BME280;13449;49.374;8.584;2023-11-18T09:51:43;101507.56;;;7.58;100.00
24486;BME280;13449;49.374;8.584;2023-11-18T09:54:20;101515.22;;;7.62;100.00
24486;BME280;13449;49.374;8.584;2023-11-18T09:59:37;101521.00;;;7.69;100.00
24486;BME280;13449;49.374;8.584;2023-11-18T10:02:10;101523.47;;;7.72;100.00
24486;BME280;13449;49.374;8.584;2023-11-18T10:04:38;101529.63;;;7.71;100.00
24486;BME280;13449;49.374;8.584;2023-11-18T10:07:08;101527.03;;;7.71;100.00
24486;BME280;13449;49.374;8.584;2023-11-18T10:09:39;101519.72;;;7.77;100.00
24486;BME280;13449;49.374;8.584;2023-11-18T10:12:09;101521.66;;;7.74;100.00
24486;BME280;13449;49.374;8.584;2023-11-18T10:14:42;101515.19;;;7.81;100.00
24486;BME280;13449;49.374;8.584;2023-11-18T10:17:10;101523.28;;;7.76;100.00
24486;BME280;13449;49.374;8.584;2023-11-18T10:22:27;101518.22;;;7.72;100.00
24486;BME280;13449;49.374;8.584;2023-11-18T10:24:57;101519.31;;;7.68;100.00
24486;BME280;13449;49.374;8.584;2023-11-18T10:27:25;101518.47;;;7.67;100.00
24486;BME280;13449;49.374;8.584;2023-11-18T10:30:02;101522.28;;;7.79;100.00
24486;BME280;13449;49.374;8.584;2023-11-18T10:32:32;101517.19;;;7.76;100.00
24486;BME280;13449;49.374;8.584;2023-11-18T10:35:03;101527.53;;;7.79;100.00
24486;BME280;13449;49.374;8.584;2023-11-18T10:37:32;101517.50;;;7.87;100.00
24486;BME280;13449;49.374;8.584;2023-11-18T10:40:03;101519.25;;;7.87;100.00
24486;BME280;13449;49.374;8.584;2023-11-18T10:42:32;101523.66;;;7.86;100.00
24486;BME280;13449;49.374;8.584;2023-11-18T10:45:00;101517.66;;;7.84;100.00
24486;BME280;13449;49.374;8.584;2023-11-18T10:47:33;101508.78;;;7.87;100.00
24486;BME280;13449;49.374;8.584;2023-11-18T10:50:06;101512.31;;;7.86;100.00
24486;BME280;13449;49.374;8.584;2023-11-18T10:52:36;101514.88;;;7.87;100.00
24486;BME280;13449;49.374;8.584;2023-11-18T10:55:06;101518.13;;;7.92;100.00
24486;BME280;13449;49.374;8.584;2023-11-18T10:57:40;101519.34;;;7.85;100.00
24486;BME280;13449;49.374;8.584;2023-11-18T11:00:09;101524.00;;;7.97;100.00
24486;BME280;13449;49.374;8.584;2023-11-18T11:02:47;101517.97;;;7.95;100.00
24486;BME280;13449;49.374;8.584;2023-11-18T11:05:38;101525.38;;;8.04;100.00
24486;BME280;13449;49.374;8.584;2023-11-18T11:08:08;101519.16;;;8.07;100.00
24486;BME280;13449;49.374;8.584;2023-11-18T11:10:35;101520.78;;;8.09;100.00
24486;BME280;13449;49.374;8.584;2023-11-18T11:13:02;101515.53;;;8.09;100.00
24486;BME280;13449;49.374;8.584;2023-11-18T11:15:29;101512.84;;;8.11;100.00
24486;BME280;13449;49.374;8.584;2023-11-18T11:18:11;101503.19;;;8.11;100.00
24486;BME280;13449;49.374;8.584;2023-11-18T11:20:49;101495.91;;;8.17;100.00
24486;BME280;13449;49.374;8.584;2023-11-18T11:23:39;101501.16;;;8.17;100.00
24486;BME280;13449;49.374;8.584;2023-11-18T11:26:23;101487.28;;;8.15;100.00
24486;BME280;13449;49.374;8.584;2023-11-18T11:29:03;101492.38;;;8.18;100.00
24486;BME280;13449;49.374;8.584;2023-11-18T11:31:38;101496.56;;;8.22;100.00
24486;BME280;13449;49.374;8.584;2023-11-18T11:34:17;101484.19;;;8.24;100.00
24486;BME280;13449;49.374;8.584;2023-11-18T11:36:51;101476.00;;;8.30;100.00
24486;BME280;13449;49.374;8.584;2023-11-18T11:39:19;101474.16;;;8.32;100.00
24486;BME280;13449;49.374;8.584;2023-11-18T11:41:53;101467.97;;;8.33;100.00
24486;BME280;13449;49.374;8.584;2023-11-18T11:44:23;101460.25;;;8.30;100.00
24486;BME280;13449;49.374;8.584;2023-11-18T11:46:59;101458.72;;;8.26;100.00
24486;BME280;13449;49.374;8.584;2023-11-18T11:49:35;101464.13;;;8.23;100.00
24486;BME280;13449;49.374;8.584;2023-11-18T11:52:09;101465.81;;;8.24;100.00
24486;BME280;13449;49.374;8.584;2023-11-18T11:55:00;101457.47;;;8.16;100.00
24486;BME280;13449;49.374;8.584;2023-11-18T11:57:29;101454.63;;;8.20;100.00
24486;BME280;13449;49.374;8.584;2023-11-18T12:00:03;101450.53;;;8.15;100.00
24486;BME280;13449;49.374;8.584;2023-11-18T12:02:48;101448.91;;;8.12;100.00
24486;BME280;13449;49.374;8.584;2023-11-18T12:05:24;101449.28;;;8.04;100.00
24486;BME280;13449;49.374;8.584;2023-11-18T12:07:55;101444.00;;;8.06;100.00
24486;BME280;13449;49.374;8.584;2023-11-18T12:10:32;101449.28;;;8.04;100.00
24486;BME280;13449;49.374;8.584;2023-11-18T12:13:08;101443.06;;;8.07;100.00
24486;BME280;13449;49.374;8.584;2023-11-18T12:18:30;101451.69;;;8.09;100.00
24486;BME280;13449;49.374;8.584;2023-11-18T12:21:03;101442.06;;;8.09;100.00
24486;BME280;13449;49.374;8.584;2023-11-18T12:23:31;101447.47;;;8.06;100.00
24486;BME280;13449;49.374;8.584;2023-11-18T12:26:01;101447.59;;;8.03;100.00
24486;BME280;13449;49.374;8.584;2023-11-18T12:28:30;101443.28;;;8.02;100.00
24486;BME280;13449;49.374;8.584;2023-11-18T12:31:02;101456.41;;;8.02;100.00
24486;BME280;13449;49.374;8.584;2023-11-18T12:42:05;101450.09;;;7.89;100.00
24486;BME280;13449;49.374;8.584;2023-11-18T12:47:51;101439.09;;;7.81;100.00
24486;BME280;13449;49.374;8.584;2023-11-18T12:50:22;101443.59;;;7.79;100.00
24486;BME280;13449;49.374;8.584;2023-11-18T12:52:55;101443.59;;;7.79;100.00
24486;BME280;13449;49.374;8.584;2023-11-18T12:55:23;101452.22;;;7.81;100.00
24486;BME280;13449;49.374;8.584;2023-11-18T12:57:52;101450.53;;;7.80;100.00
24486;BME280;13449;49.374;8.584;2023-11-18T13:00:20;101440.03;;;7.80;100.00
24486;BME280;13449;49.374;8.584;2023-11-18T13:02:56;101434.78;;;7.80;100.00
24486;BME280;13449;49.374;8.584;2023-11-18T13:05:24;101422.44;;;7.82;100.00
24486;BME280;13449;49.374;8.584;2023-11-18T13:07:56;101427.53;;;7.85;100.00
24486;BME280;13449;49.374;8.584;2023-11-18T13:10:28;101410.03;;;7.86;100.00
24486;BME280;13449;49.374;8.584;2023-11-18T13:12:56;101415.91;;;7.91;100.00
24486;BME280;13449;49.374;8.584;2023-11-18T13:15:27;101416.75;;;7.91;100.00
24486;BME280;13449;49.374;8.584;2023-11-18T13:18:04;101410.50;;;7.94;100.00
24486;BME280;13449;49.374;8.584;2023-11-18T13:20:33;101397.47;;;7.92;100.00
24486;BME280;13449;49.374;8.584;2023-11-18T13:23:02;101388.66;;;7.93;100.00
24486;BME280;13449;49.374;8.584;2023-11-18T13:25:35;101387.81;;;7.93;100.00
24486;BME280;13449;49.374;8.584;2023-11-18T13:28:08;101390.53;;;7.91;100.00
24486;BME280;13449;49.374;8.584;2023-11-18T13:30:37;101392.22;;;7.92;100.00